sensor_id;sensor_type;location;lat;lon;timestamp;pressure;altitude;pressure_sealevel;temperature;humidity
61963;BME280;47927;42.646;23.096;2023-02-16T00:00:17;93246.91;;;-0.28;55.64
61963;BME280;47927;42.646;23.096;2023-02-16T00:02:44;93240.03;;;-0.33;55.81
61963;BME280;47927;42.646;23.096;2023-02-16T00:05:30;93245.16;;;-0.33;56.15
61963;BME280;47927;42.646;23.096;2023-02-16T00:07:57;93251.50;;;-0.80;58.12
61963;BME280;47927;42.646;23.096;2023-02-16T00:10:24;93251.66;;;-0.56;58.67
61963;BME280;47927;42.646;23.096;2023-02-16T00:12:51;93235.81;;;-0.63;58.18
61963;BME280;47927;42.646;23.096;2023-02-16T00:15:35;93235.25;;;-0.50;58.06
61963;BME280;47927;42.646;23.096;2023-02-16T00:18:02;93235.63;;;-0.27;55.92
61963;BME280;47927;42.646;23.096;2023-02-16T00:20:30;93239.13;;;-0.18;55.29
61963;BME280;47927;42.646;23.096;2023-02-16T00:22:56;93236.13;;;-0.25;55.30
61963;BME280;47927;42.646;23.096;2023-02-16T00:25:22;93234.19;;;-0.43;55.63
61963;BME280;47927;42.646;23.096;2023-02-16T00:27:47;93237.44;;;-0.87;57.85
61963;BME280;47927;42.646;23.096;2023-02-16T00:30:18;93216.47;;;-0.89;58.38
61963;BME280;47927;42.646;23.096;2023-02-16T00:32:47;93239.97;;;-0.77;58.19
61963;BME280;47927;42.646;23.096;2023-02-16T00:35:17;93240.22;;;-0.79;58.31
61963;BME280;47927;42.646;23.096;2023-02-16T00:37:43;93235.84;;;-0.68;58.36
61963;BME280;47927;42.646;23.096;2023-02-16T00:40:09;93235.31;;;-0.65;58.37
61963;BME280;47927;42.646;23.096;2023-02-16T00:42:36;93239.94;;;-0.72;58.76
61963;BME280;47927;42.646;23.096;2023-02-16T00:45:02;93238.31;;;-0.48;58.18
61963;BME280;47927;42.646;23.096;2023-02-16T00:47:35;93235.88;;;-0.29;56.69
61963;BME280;47927;42.646;23.096;2023-02-16T00:50:44;93232.59;;;-0.34;55.91
61963;BME280;47927;42.646;23.096;2023-02-16T00:52:50;93230.53;;;-0.32;55.72
61963;BME280;47927;42.646;23.096;2023-02-16T00:55:22;93237.06;;;-0.55;56.65
61963;BME280;47927;42.646;23.096;2023-02-16T00:57:53;93235.25;;;-0.50;57.12
61963;BME280;47927;42.646;23.096;2023-02-16T01:00:57;93236.91;;;-0.74;57.92
61963;BME280;47927;42.646;23.096;2023-02-16T01:03:27;93241.03;;;-0.88;58.71
61963;BME280;47927;42.646;23.096;2023-02-16T01:05:53;93229.25;;;-0.84;58.41
61963;BME280;47927;42.646;23.096;2023-02-16T01:08:39;93228.09;;;-0.58;57.71
61963;BME280;47927;42.646;23.096;2023-02-16T01:11:24;93226.00;;;-0.46;55.01
61963;BME280;47927;42.646;23.096;2023-02-16T01:13:52;93228.84;;;-0.47;54.86
61963;BME280;47927;42.646;23.096;2023-02-16T01:16:23;93238.31;;;-0.53;55.25
61963;BME280;47927;42.646;23.096;2023-02-16T01:18:51;93225.03;;;-0.60;56.23
61963;BME280;47927;42.646;23.096;2023-02-16T01:21:18;93221.75;;;-0.65;56.66
61963;BME280;47927;42.646;23.096;2023-02-16T01:23:46;93223.72;;;-0.47;56.17
61963;BME280;47927;42.646;23.096;2023-02-16T01:26:17;93218.06;;;-0.44;55.86
61963;BME280;47927;42.646;23.096;2023-02-16T01:28:45;93219.59;;;-0.43;55.66
61963;BME280;47927;42.646;23.096;2023-02-16T01:31:12;93209.31;;;-0.38;55.23
61963;BME280;47927;42.646;23.096;2023-02-16T01:33:39;93206.47;;;-0.31;54.76
61963;BME280;47927;42.646;23.096;2023-02-16T01:36:18;93203.38;;;-0.33;54.83
61963;BME280;47927;42.646;23.096;2023-02-16T01:38:46;93200.34;;;-0.35;54.68
61963;BME280;47927;42.646;23.096;2023-02-16T01:41:43;93196.53;;;-0.38;54.37
61963;BME280;47927;42.646;23.096;2023-02-16T01:44:42;93197.91;;;-0.56;55.17
61963;BME280;47927;42.646;23.096;2023-02-16T01:49:56;93191.22;;;-0.52;54.70
61963;BME280;47927;42.646;23.096;2023-02-16T01:52:36;93189.41;;;-0.51;54.59
61963;BME280;47927;42.646;23.096;2023-02-16T02:02:43;93186.97;;;-0.72;55.83
61963;BME280;47927;42.646;23.096;2023-02-16T02:16:07;93192.22;;;-1.02;57.45
61963;BME280;47927;42.646;23.096;2023-02-16T02:18:33;93184.47;;;-0.82;56.33
61963;BME280;47927;42.646;23.096;2023-02-16T02:27:15;93179.81;;;-0.75;55.23
61963;BME280;47927;42.646;23.096;2023-02-16T02:33:16;93171.91;;;-0.83;56.57
61963;BME280;47927;42.646;23.096;2023-02-16T02:41:36;93174.38;;;-0.63;55.92
61963;BME280;47927;42.646;23.096;2023-02-16T02:45:09;93180.31;;;-0.67;56.21
61963;BME280;47927;42.646;23.096;2023-02-16T02:47:43;93182.84;;;-0.62;54.77
61963;BME280;47927;42.646;23.096;2023-02-16T02:50:46;93172.09;;;-0.64;55.32
61963;BME280;47927;42.646;23.096;2023-02-16T02:53:38;93180.03;;;-0.66;54.92
61963;BME280;47927;42.646;23.096;2023-02-16T02:56:06;93185.22;;;-0.76;55.42
61963;BME280;47927;42.646;23.096;2023-02-16T02:58:55;93182.88;;;-0.73;55.84
61963;BME280;47927;42.646;23.096;2023-02-16T03:01:42;93184.78;;;-0.94;56.35
61963;BME280;47927;42.646;23.096;2023-02-16T03:04:11;93183.41;;;-0.81;56.23
61963;BME280;47927;42.646;23.096;2023-02-16T03:06:44;93188.53;;;-0.81;55.08
61963;BME280;47927;42.646;23.096;2023-02-16T03:09:13;93181.47;;;-0.99;57.10
61963;BME280;47927;42.646;23.096;2023-02-16T03:11:40;93179.84;;;-0.80;56.46
61963;BME280;47927;42.646;23.096;2023-02-16T03:14:36;93164.84;;;-0.97;56.39
61963;BME280;47927;42.646;23.096;2023-02-16T03:17:13;93180.69;;;-1.00;56.75
61963;BME280;47927;42.646;23.096;2023-02-16T03:20:00;93179.13;;;-0.90;53.53
61963;BME280;47927;42.646;23.096;2023-02-16T03:22:46;93165.66;;;-1.11;55.44
61963;BME280;47927;42.646;23.096;2023-02-16T03:25:34;93175.06;;;-0.97;55.87
61963;BME280;47927;42.646;23.096;2023-02-16T03:28:21;93178.59;;;-0.87;55.30
61963;BME280;47927;42.646;23.096;2023-02-16T03:31:11;93176.03;;;-0.82;54.25
61963;BME280;47927;42.646;23.096;2023-02-16T03:33:38;93174.78;;;-0.90;55.55
61963;BME280;47927;42.646;23.096;2023-02-16T03:36:04;93170.69;;;-0.86;55.67
61963;BME280;47927;42.646;23.096;2023-02-16T03:38:31;93177.03;;;-0.78;55.84
61963;BME280;47927;42.646;23.096;2023-02-16T03:40:57;93174.25;;;-0.87;56.37
61963;BME280;47927;42.646;23.096;2023-02-16T03:43:27;93165.56;;;-0.91;56.60
61963;BME280;47927;42.646;23.096;2023-02-16T03:46:11;93176.56;;;-0.85;56.78
61963;BME280;47927;42.646;23.096;2023-02-16T03:48:37;93172.44;;;-0.86;55.66
61963;BME280;47927;42.646;23.096;2023-02-16T03:51:02;93174.22;;;-0.82;56.20
61963;BME280;47927;42.646;23.096;2023-02-16T03:53:28;93170.91;;;-0.82;55.87
61963;BME280;47927;42.646;23.096;2023-02-16T03:55:53;93167.53;;;-0.78;56.02
61963;BME280;47927;42.646;23.096;2023-02-16T03:58:22;93144.88;;;-0.95;55.22
61963;BME280;47927;42.646;23.096;2023-02-16T04:00:49;93162.56;;;-1.08;56.64
61963;BME280;47927;42.646;23.096;2023-02-16T04:03:16;93156.41;;;-1.02;56.72
61963;BME280;47927;42.646;23.096;2023-02-16T04:05:41;93154.53;;;-0.81;56.15
61963;BME280;47927;42.646;23.096;2023-02-16T04:08:08;93151.75;;;-0.90;56.40
61963;BME280;47927;42.646;23.096;2023-02-16T04:10:34;93142.25;;;-0.84;55.88
61963;BME280;47927;42.646;23.096;2023-02-16T04:13:00;93131.25;;;-0.85;55.04
61963;BME280;47927;42.646;23.096;2023-02-16T04:15:27;93149.09;;;-0.70;54.49
61963;BME280;47927;42.646;23.096;2023-02-16T04:17:53;93138.59;;;-0.68;53.93
61963;BME280;47927;42.646;23.096;2023-02-16T04:20:22;93137.63;;;-0.77;54.29
61963;BME280;47927;42.646;23.096;2023-02-16T04:22:48;93136.59;;;-0.81;54.94
61963;BME280;47927;42.646;23.096;2023-02-16T04:25:14;93143.00;;;-0.84;55.36
61963;BME280;47927;42.646;23.096;2023-02-16T04:27:41;93137.41;;;-0.86;55.55
61963;BME280;47927;42.646;23.096;2023-02-16T04:30:10;93135.59;;;-0.80;55.39
61963;BME280;47927;42.646;23.096;2023-02-16T04:32:37;93134.78;;;-0.76;54.15
61963;BME280;47927;42.646;23.096;2023-02-16T04:35:02;93130.72;;;-0.77;55.24
61963;BME280;47927;42.646;23.096;2023-02-16T04:37:28;93134.56;;;-0.79;55.04
61963;BME280;47927;42.646;23.096;2023-02-16T04:39:53;93147.47;;;-1.05;55.48
61963;BME280;47927;42.646;23.096;2023-02-16T04:42:19;93146.03;;;-1.26;56.91
61963;BME280;47927;42.646;23.096;2023-02-16T04:44:44;93115.25;;;-1.71;57.96
61963;BME280;47927;42.646;23.096;2023-02-16T04:47:10;93144.44;;;-1.17;55.14
61963;BME280;47927;42.646;23.096;2023-02-16T04:49:36;93146.75;;;-1.16;54.56
61963;BME280;47927;42.646;23.096;2023-02-16T04:52:02;93157.00;;;-1.16;54.60
61963;BME280;47927;42.646;23.096;2023-02-16T04:54:32;93151.88;;;-1.16;54.25
61963;BME280;47927;42.646;23.096;2023-02-16T04:56:59;93153.63;;;-1.06;55.14
61963;BME280;47927;42.646;23.096;2023-02-16T04:59:24;93151.28;;;-1.02;55.41
61963;BME280;47927;42.646;23.096;2023-02-16T05:01:50;93126.34;;;-1.26;56.05
61963;BME280;47927;42.646;23.096;2023-02-16T05:04:17;93152.13;;;-1.22;57.87
61963;BME280;47927;42.646;23.096;2023-02-16T05:06:42;93145.19;;;-1.11;58.30
61963;BME280;47927;42.646;23.096;2023-02-16T05:09:08;93162.19;;;-0.81;56.94
61963;BME280;47927;42.646;23.096;2023-02-16T05:11:34;93156.06;;;-0.80;56.13
61963;BME280;47927;42.646;23.096;2023-02-16T05:17:08;93158.31;;;-0.74;54.81
61963;BME280;47927;42.646;23.096;2023-02-16T05:19:34;93170.63;;;-0.76;55.12
61963;BME280;47927;42.646;23.096;2023-02-16T05:22:00;93165.72;;;-0.67;54.26
61963;BME280;47927;42.646;23.096;2023-02-16T05:24:26;93169.25;;;-0.63;54.17
61963;BME280;47927;42.646;23.096;2023-02-16T05:26:51;93171.06;;;-0.63;54.12
61963;BME280;47927;42.646;23.096;2023-02-16T05:29:17;93168.25;;;-0.62;53.70
61963;BME280;47927;42.646;23.096;2023-02-16T05:31:43;93168.47;;;-0.58;53.63
61963;BME280;47927;42.646;23.096;2023-02-16T05:34:08;93177.03;;;-0.78;54.79
61963;BME280;47927;42.646;23.096;2023-02-16T05:36:34;93182.34;;;-0.64;55.32
61963;BME280;47927;42.646;23.096;2023-02-16T05:38:59;93179.47;;;-0.53;54.92
61963;BME280;47927;42.646;23.096;2023-02-16T05:41:25;93182.97;;;-0.43;55.14
61963;BME280;47927;42.646;23.096;2023-02-16T05:43:58;93184.28;;;-0.46;56.80
61963;BME280;47927;42.646;23.096;2023-02-16T05:46:25;93187.63;;;-0.51;54.86
61963;BME280;47927;42.646;23.096;2023-02-16T05:48:51;93190.97;;;-0.11;54.56
61963;BME280;47927;42.646;23.096;2023-02-16T05:51:17;93193.56;;;2.28;50.59
61963;BME280;47927;42.646;23.096;2023-02-16T05:53:43;93185.81;;;4.78;45.64
61963;BME280;47927;42.646;23.096;2023-02-16T05:56:09;93198.75;;;6.75;39.54
61963;BME280;47927;42.646;23.096;2023-02-16T05:58:35;93194.69;;;8.26;38.02
61963;BME280;47927;42.646;23.096;2023-02-16T06:01:00;93199.44;;;9.76;35.58
61963;BME280;47927;42.646;23.096;2023-02-16T06:03:26;93198.31;;;11.02;33.30
61963;BME280;47927;42.646;23.096;2023-02-16T06:05:56;93198.50;;;11.76;32.01
61963;BME280;47927;42.646;23.096;2023-02-16T06:08:22;93196.69;;;12.73;29.70
61963;BME280;47927;42.646;23.096;2023-02-16T06:10:49;93203.97;;;13.53;30.06
61963;BME280;47927;42.646;23.096;2023-02-16T06:13:15;93206.22;;;14.07;28.53
61963;BME280;47927;42.646;23.096;2023-02-16T06:15:41;93201.13;;;14.22;29.49
61963;BME280;47927;42.646;23.096;2023-02-16T06:18:08;93205.59;;;14.81;28.17
61963;BME280;47927;42.646;23.096;2023-02-16T06:20:36;93210.72;;;15.56;27.61
61963;BME280;47927;42.646;23.096;2023-02-16T06:23:02;93216.50;;;16.46;26.86
61963;BME280;47927;42.646;23.096;2023-02-16T06:25:28;93220.47;;;17.45;25.14
61963;BME280;47927;42.646;23.096;2023-02-16T06:27:53;93208.81;;;17.78;25.52
61963;BME280;47927;42.646;23.096;2023-02-16T06:30:22;93210.97;;;18.33;23.84
61963;BME280;47927;42.646;23.096;2023-02-16T06:32:48;93216.13;;;18.65;23.77
61963;BME280;47927;42.646;23.096;2023-02-16T06:35:13;93218.06;;;19.28;23.77
61963;BME280;47927;42.646;23.096;2023-02-16T06:37:39;93217.94;;;19.91;21.89
61963;BME280;47927;42.646;23.096;2023-02-16T06:40:05;93223.28;;;19.84;23.38
61963;BME280;47927;42.646;23.096;2023-02-16T06:42:31;93222.81;;;19.47;23.89
61963;BME280;47927;42.646;23.096;2023-02-16T06:44:56;93227.88;;;20.52;22.51
61963;BME280;47927;42.646;23.096;2023-02-16T06:47:22;93234.56;;;21.25;21.54
61963;BME280;47927;42.646;23.096;2023-02-16T06:49:54;93226.91;;;21.57;19.52
61963;BME280;47927;42.646;23.096;2023-02-16T06:52:38;93231.28;;;21.68;20.87
61963;BME280;47927;42.646;23.096;2023-02-16T06:55:03;93224.72;;;21.99;20.18
61963;BME280;47927;42.646;23.096;2023-02-16T06:57:29;93217.78;;;22.29;19.59
61963;BME280;47927;42.646;23.096;2023-02-16T06:59:54;93219.47;;;22.39;19.93
61963;BME280;47927;42.646;23.096;2023-02-16T07:02:20;93215.91;;;22.86;19.86
61963;BME280;47927;42.646;23.096;2023-02-16T07:04:46;93211.69;;;23.08;18.80
61963;BME280;47927;42.646;23.096;2023-02-16T07:07:11;93211.38;;;23.39;18.57
61963;BME280;47927;42.646;23.096;2023-02-16T07:09:37;93212.88;;;23.56;17.82
61963;BME280;47927;42.646;23.096;2023-02-16T07:12:04;93198.84;;;23.72;17.51
61963;BME280;47927;42.646;23.096;2023-02-16T07:14:30;93199.81;;;23.95;17.44
61963;BME280;47927;42.646;23.096;2023-02-16T07:16:56;93204.38;;;23.94;17.63
61963;BME280;47927;42.646;23.096;2023-02-16T07:19:24;93195.97;;;23.79;18.32
61963;BME280;47927;42.646;23.096;2023-02-16T07:21:50;93197.75;;;23.86;18.28
61963;BME280;47927;42.646;23.096;2023-02-16T07:24:16;93195.09;;;24.15;17.80
61963;BME280;47927;42.646;23.096;2023-02-16T07:26:42;93203.75;;;24.19;17.58
61963;BME280;47927;42.646;23.096;2023-02-16T07:29:07;93202.78;;;23.97;18.79
61963;BME280;47927;42.646;23.096;2023-02-16T07:31:33;93197.84;;;24.41;18.65
61963;BME280;47927;42.646;23.096;2023-02-16T07:33:58;93201.91;;;24.87;17.54
61963;BME280;47927;42.646;23.096;2023-02-16T07:36:24;93208.84;;;24.72;18.60
61963;BME280;47927;42.646;23.096;2023-02-16T07:39:08;93203.56;;;25.23;17.95
61963;BME280;47927;42.646;23.096;2023-02-16T07:41:34;93199.66;;;24.98;17.47
61963;BME280;47927;42.646;23.096;2023-02-16T07:44:06;93208.44;;;25.12;18.69
61963;BME280;47927;42.646;23.096;2023-02-16T07:46:31;93202.81;;;25.22;18.30
61963;BME280;47927;42.646;23.096;2023-02-16T07:48:57;93201.94;;;25.51;17.33
61963;BME280;47927;42.646;23.096;2023-02-16T07:51:24;93202.38;;;25.50;17.89
61963;BME280;47927;42.646;23.096;2023-02-16T07:53:51;93207.59;;;25.53;17.29
61963;BME280;47927;42.646;23.096;2023-02-16T07:56:35;93201.19;;;24.45;18.95
61963;BME280;47927;42.646;23.096;2023-02-16T07:59:02;93209.72;;;24.52;19.17
61963;BME280;47927;42.646;23.096;2023-02-16T08:01:29;93212.00;;;23.10;19.49
61963;BME280;47927;42.646;23.096;2023-02-16T08:04:13;93217.03;;;23.05;20.17
61963;BME280;47927;42.646;23.096;2023-02-16T08:06:39;93211.50;;;23.32;20.00
61963;BME280;47927;42.646;23.096;2023-02-16T08:09:04;93216.34;;;23.37;19.56
61963;BME280;47927;42.646;23.096;2023-02-16T08:11:30;93217.53;;;23.69;19.51
61963;BME280;47927;42.646;23.096;2023-02-16T08:13:58;93216.03;;;23.84;19.62
61963;BME280;47927;42.646;23.096;2023-02-16T08:16:26;93215.28;;;24.29;18.76
61963;BME280;47927;42.646;23.096;2023-02-16T08:18:55;93216.44;;;24.28;19.08
61963;BME280;47927;42.646;23.096;2023-02-16T08:21:23;93221.16;;;24.37;18.55
61963;BME280;47927;42.646;23.096;2023-02-16T08:23:54;93221.84;;;24.83;16.31
61963;BME280;47927;42.646;23.096;2023-02-16T08:26:21;93225.13;;;24.74;17.31
61963;BME280;47927;42.646;23.096;2023-02-16T08:28:47;93223.16;;;24.32;18.12
61963;BME280;47927;42.646;23.096;2023-02-16T08:31:16;93222.78;;;24.18;18.85
61963;BME280;47927;42.646;23.096;2023-02-16T08:33:43;93218.00;;;24.13;18.96
61963;BME280;47927;42.646;23.096;2023-02-16T08:38:49;93215.16;;;24.49;17.85
61963;BME280;47927;42.646;23.096;2023-02-16T08:41:19;93221.56;;;24.51;17.53
61963;BME280;47927;42.646;23.096;2023-02-16T08:43:46;93223.13;;;24.20;17.37
61963;BME280;47927;42.646;23.096;2023-02-16T08:46:11;93222.78;;;24.18;17.92
61963;BME280;47927;42.646;23.096;2023-02-16T08:48:37;93220.47;;;24.78;16.38
61963;BME280;47927;42.646;23.096;2023-02-16T08:51:04;93220.16;;;24.01;16.94
61963;BME280;47927;42.646;23.096;2023-02-16T08:53:34;93222.84;;;24.30;17.36
61963;BME280;47927;42.646;23.096;2023-02-16T08:56:01;93223.03;;;24.23;17.40
61963;BME280;47927;42.646;23.096;2023-02-16T08:58:28;93193.97;;;24.00;17.61
61963;BME280;47927;42.646;23.096;2023-02-16T09:00:54;93218.34;;;24.44;17.97
61963;BME280;47927;42.646;23.096;2023-02-16T09:03:20;93220.66;;;24.84;19.04
61963;BME280;47927;42.646;23.096;2023-02-16T09:05:47;93229.53;;;24.93;22.29
61963;BME280;47927;42.646;23.096;2023-02-16T09:08:13;93221.03;;;24.56;20.61
61963;BME280;47927;42.646;23.096;2023-02-16T09:10:40;93213.75;;;24.44;22.81
61963;BME280;47927;42.646;23.096;2023-02-16T09:13:06;93230.81;;;25.01;21.72
61963;BME280;47927;42.646;23.096;2023-02-16T09:15:38;93225.97;;;24.84;21.20
61963;BME280;47927;42.646;23.096;2023-02-16T09:18:04;93219.78;;;24.74;24.42
61963;BME280;47927;42.646;23.096;2023-02-16T09:20:31;93211.97;;;24.25;20.14
61963;BME280;47927;42.646;23.096;2023-02-16T09:22:57;93215.81;;;24.66;20.98
61963;BME280;47927;42.646;23.096;2023-02-16T09:25:23;93215.56;;;24.89;19.22
61963;BME280;47927;42.646;23.096;2023-02-16T09:27:51;93210.72;;;24.59;18.32
61963;BME280;47927;42.646;23.096;2023-02-16T09:30:17;93209.72;;;24.52;20.98
61963;BME280;47927;42.646;23.096;2023-02-16T09:32:42;93210.94;;;24.35;18.99
61963;BME280;47927;42.646;23.096;2023-02-16T09:35:08;93213.66;;;24.19;19.25
61963;BME280;47927;42.646;23.096;2023-02-16T09:37:33;93213.31;;;23.71;20.18
61963;BME280;47927;42.646;23.096;2023-02-16T09:39:59;93203.97;;;23.79;23.12
61963;BME280;47927;42.646;23.096;2023-02-16T09:45:06;93204.97;;;23.85;20.77
61963;BME280;47927;42.646;23.096;2023-02-16T09:47:37;93201.50;;;23.56;21.75
61963;BME280;47927;42.646;23.096;2023-02-16T09:50:23;93198.13;;;22.83;22.96
61963;BME280;47927;42.646;23.096;2023-02-16T09:53:00;93194.91;;;23.11;25.07
61963;BME280;47927;42.646;23.096;2023-02-16T09:55:35;93189.00;;;21.60;25.41
61963;BME280;47927;42.646;23.096;2023-02-16T09:58:18;93196.31;;;22.40;22.04
61963;BME280;47927;42.646;23.096;2023-02-16T10:01:02;93191.44;;;22.58;21.30
61963;BME280;47927;42.646;23.096;2023-02-16T10:06:35;93180.88;;;22.91;21.64
61963;BME280;47927;42.646;23.096;2023-02-16T10:09:09;93181.03;;;22.84;22.08
61963;BME280;47927;42.646;23.096;2023-02-16T10:11:45;93182.09;;;22.86;21.15
61963;BME280;47927;42.646;23.096;2023-02-16T10:19:59;93176.25;;;22.59;22.30
61963;BME280;47927;42.646;23.096;2023-02-16T10:22:31;93169.78;;;22.96;24.01
61963;BME280;47927;42.646;23.096;2023-02-16T10:27:38;93172.72;;;21.82;23.92
61963;BME280;47927;42.646;23.096;2023-02-16T10:30:14;93171.47;;;21.43;23.95
61963;BME280;47927;42.646;23.096;2023-02-16T10:33:13;93173.63;;;21.25;23.30
61963;BME280;47927;42.646;23.096;2023-02-16T10:35:51;93174.13;;;21.16;23.64
61963;BME280;47927;42.646;23.096;2023-02-16T10:38:27;93169.22;;;20.87;23.18
61963;BME280;47927;42.646;23.096;2023-02-16T10:41:29;93165.13;;;20.56;24.11
61963;BME280;47927;42.646;23.096;2023-02-16T10:44:09;93170.63;;;20.34;24.54
61963;BME280;47927;42.646;23.096;2023-02-16T10:46:42;93164.00;;;20.19;28.20
61963;BME280;47927;42.646;23.096;2023-02-16T10:49:12;93157.72;;;19.68;25.73
61963;BME280;47927;42.646;23.096;2023-02-16T10:51:38;93156.06;;;19.85;26.80
61963;BME280;47927;42.646;23.096;2023-02-16T10:54:31;93148.28;;;19.67;24.99
61963;BME280;47927;42.646;23.096;2023-02-16T10:57:00;93145.25;;;19.68;29.37
61963;BME280;47927;42.646;23.096;2023-02-16T10:59:42;93147.06;;;19.75;25.78
61963;BME280;47927;42.646;23.096;2023-02-16T11:04:55;93141.22;;;18.41;24.75
61963;BME280;47927;42.646;23.096;2023-02-16T11:07:26;93140.38;;;18.55;26.03
61963;BME280;47927;42.646;23.096;2023-02-16T11:09:54;93141.00;;;17.93;27.88
61963;BME280;47927;42.646;23.096;2023-02-16T11:12:28;93139.75;;;18.30;28.14
61963;BME280;47927;42.646;23.096;2023-02-16T11:15:02;93136.53;;;17.83;29.13
61963;BME280;47927;42.646;23.096;2023-02-16T11:17:30;93138.22;;;18.29;28.06
61963;BME280;47927;42.646;23.096;2023-02-16T11:19:59;93128.88;;;18.20;25.97
61963;BME280;47927;42.646;23.096;2023-02-16T11:27:58;93121.81;;;18.73;22.11
61963;BME280;47927;42.646;23.096;2023-02-16T11:30:37;93120.00;;;18.56;23.72
61963;BME280;47927;42.646;23.096;2023-02-16T11:33:19;93115.44;;;18.63;25.49
61963;BME280;47927;42.646;23.096;2023-02-16T11:35:45;93109.78;;;17.73;23.70
61963;BME280;47927;42.646;23.096;2023-02-16T11:38:30;93115.03;;;17.84;24.17
61963;BME280;47927;42.646;23.096;2023-02-16T11:40:57;93120.38;;;17.41;22.54
61963;BME280;47927;42.646;23.096;2023-02-16T11:43:29;93111.38;;;17.03;23.69
61963;BME280;47927;42.646;23.096;2023-02-16T11:46:02;93107.63;;;17.07;22.33
61963;BME280;47927;42.646;23.096;2023-02-16T11:48:31;93100.09;;;17.20;24.41
61963;BME280;47927;42.646;23.096;2023-02-16T11:51:00;93101.13;;;16.37;25.26
61963;BME280;47927;42.646;23.096;2023-02-16T11:53:30;93111.31;;;16.74;26.56
61963;BME280;47927;42.646;23.096;2023-02-16T11:56:13;93105.19;;;16.16;25.58
61963;BME280;47927;42.646;23.096;2023-02-16T11:58:42;93063.78;;;15.85;25.60
61963;BME280;47927;42.646;23.096;2023-02-16T12:14:41;93087.03;;;15.79;26.84
61963;BME280;47927;42.646;23.096;2023-02-16T12:17:15;93086.31;;;15.89;24.84
61963;BME280;47927;42.646;23.096;2023-02-16T12:19:48;93089.19;;;15.66;25.52
61963;BME280;47927;42.646;23.096;2023-02-16T12:25:29;93076.47;;;15.68;22.83
61963;BME280;47927;42.646;23.096;2023-02-16T12:30:51;93061.88;;;15.78;24.75
61963;BME280;47927;42.646;23.096;2023-02-16T12:33:34;93069.91;;;15.37;25.80
61963;BME280;47927;42.646;23.096;2023-02-16T12:43:56;93058.16;;;15.90;25.32
61963;BME280;47927;42.646;23.096;2023-02-16T12:46:27;93048.47;;;16.05;25.03
61963;BME280;47927;42.646;23.096;2023-02-16T12:51:37;93058.66;;;15.40;25.60
61963;BME280;47927;42.646;23.096;2023-02-16T12:54:12;93053.00;;;15.31;25.02
61963;BME280;47927;42.646;23.096;2023-02-16T12:56:47;93041.91;;;15.66;25.88
61963;BME280;47927;42.646;23.096;2023-02-16T12:59:19;93037.50;;;15.81;25.81
61963;BME280;47927;42.646;23.096;2023-02-16T13:01:47;93044.97;;;15.79;26.24
61963;BME280;47927;42.646;23.096;2023-02-16T13:04:20;93025.50;;;15.87;26.42
61963;BME280;47927;42.646;23.096;2023-02-16T13:07:04;93033.38;;;15.91;25.02
61963;BME280;47927;42.646;23.096;2023-02-16T13:09:43;93035.66;;;15.89;26.06
61963;BME280;47927;42.646;23.096;2023-02-16T13:12:35;93038.69;;;15.98;26.06
61963;BME280;47927;42.646;23.096;2023-02-16T13:15:13;93032.63;;;15.90;26.09
61963;BME280;47927;42.646;23.096;2023-02-16T13:17:54;93042.41;;;15.83;27.08
61963;BME280;47927;42.646;23.096;2023-02-16T13:20:21;93016.09;;;15.79;25.94
61963;BME280;47927;42.646;23.096;2023-02-16T13:39:55;93023.81;;;14.81;26.23
61963;BME280;47927;42.646;23.096;2023-02-16T13:45:15;93018.97;;;14.83;26.58
61963;BME280;47927;42.646;23.096;2023-02-16T13:47:42;93011.50;;;14.85;27.67
61963;BME280;47927;42.646;23.096;2023-02-16T13:52:51;93014.91;;;14.48;26.02
61963;BME280;47927;42.646;23.096;2023-02-16T13:55:38;93020.13;;;14.41;26.86
61963;BME280;47927;42.646;23.096;2023-02-16T14:05:44;93011.19;;;14.49;28.40
61963;BME280;47927;42.646;23.096;2023-02-16T14:16:14;93007.63;;;14.27;27.25
61963;BME280;47927;42.646;23.096;2023-02-16T14:21:43;93007.56;;;14.20;28.23
61963;BME280;47927;42.646;23.096;2023-02-16T14:24:33;93000.75;;;14.12;27.91
61963;BME280;47927;42.646;23.096;2023-02-16T14:27:00;92970.19;;;13.86;27.25
61963;BME280;47927;42.646;23.096;2023-02-16T14:34:54;93000.97;;;13.96;28.75
61963;BME280;47927;42.646;23.096;2023-02-16T14:37:27;93005.09;;;13.97;28.33
61963;BME280;47927;42.646;23.096;2023-02-16T14:39:58;93001.16;;;13.77;28.28
61963;BME280;47927;42.646;23.096;2023-02-16T14:42:30;92985.38;;;13.70;28.37
61963;BME280;47927;42.646;23.096;2023-02-16T14:45:10;93003.81;;;13.80;28.67
61963;BME280;47927;42.646;23.096;2023-02-16T14:50:25;93002.59;;;13.71;29.62
61963;BME280;47927;42.646;23.096;2023-02-16T14:58:28;92998.97;;;13.49;30.03
61963;BME280;47927;42.646;23.096;2023-02-16T15:03:25;92994.28;;;13.31;29.22
61963;BME280;47927;42.646;23.096;2023-02-16T15:06:02;92994.66;;;13.30;29.90
61963;BME280;47927;42.646;23.096;2023-02-16T15:08:33;92994.19;;;13.24;29.38
61963;BME280;47927;42.646;23.096;2023-02-16T15:11:19;93001.34;;;13.27;28.97
61963;BME280;47927;42.646;23.096;2023-02-16T15:13:45;93006.25;;;13.06;30.59
61963;BME280;47927;42.646;23.096;2023-02-16T15:16:12;92995.94;;;12.63;32.17
61963;BME280;47927;42.646;23.096;2023-02-16T15:19:03;93004.22;;;12.42;32.49
61963;BME280;47927;42.646;23.096;2023-02-16T15:21:32;93006.34;;;11.91;33.83
61963;BME280;47927;42.646;23.096;2023-02-16T15:23:59;93002.25;;;11.31;34.68
61963;BME280;47927;42.646;23.096;2023-02-16T15:26:30;92992.06;;;11.07;35.22
61963;BME280;47927;42.646;23.096;2023-02-16T15:29:24;93008.41;;;10.88;35.14
61963;BME280;47927;42.646;23.096;2023-02-16T15:31:54;93008.53;;;10.76;35.34
61963;BME280;47927;42.646;23.096;2023-02-16T15:34:32;93011.47;;;10.74;35.04
61963;BME280;47927;42.646;23.096;2023-02-16T15:36:58;93004.28;;;10.36;35.97
61963;BME280;47927;42.646;23.096;2023-02-16T15:39:28;93006.16;;;10.23;36.90
61963;BME280;47927;42.646;23.096;2023-02-16T15:42:18;93007.88;;;9.71;37.74